createdAt,value
2018-05-17T00:00:34.694Z,0
2018-05-17T00:01:44.194Z,0
2018-05-17T00:02:53.340Z,0
2018-05-17T00:04:02.205Z,0
2018-05-17T00:05:11.063Z,0
2018-05-17T00:06:19.922Z,0
2018-05-17T00:07:28.884Z,0
2018-05-17T00:08:37.745Z,0
2018-05-17T00:09:46.604Z,0
2018-05-17T00:10:55.460Z,0
2018-05-17T00:12:04.323Z,0
2018-05-17T00:13:13.329Z,0
2018-05-17T00:14:22.189Z,0
2018-05-17T00:15:31.049Z,0
2018-05-17T00:16:39.906Z,0
2018-05-17T00:17:48.768Z,0
2018-05-17T00:18:57.677Z,0
2018-05-17T00:20:06.539Z,0
2018-05-17T00:21:15.395Z,0
2018-05-17T00:22:24.532Z,0
2018-05-17T00:23:33.666Z,0
2018-05-17T00:24:42.907Z,0
2018-05-17T00:25:51.763Z,0
2018-05-17T00:27:00.905Z,0
2018-05-17T00:28:09.764Z,0
2018-05-17T00:29:18.627Z,0
2018-05-17T00:30:27.730Z,0
2018-05-17T00:31:36.591Z,0
2018-05-17T00:32:45.726Z,0
2018-05-17T00:33:54.867Z,0
2018-05-17T00:35:03.724Z,0
2018-05-17T00:36:12.935Z,0
2018-05-17T00:37:21.799Z,0
2018-05-17T00:38:30.661Z,0
2018-05-17T00:39:39.520Z,0
2018-05-17T00:40:48.381Z,0
2018-05-17T00:41:57.595Z,0
2018-05-17T00:43:06.449Z,0
2018-05-17T00:44:15.309Z,0
2018-05-17T00:45:24.173Z,0
2018-05-17T00:46:33.031Z,0
2018-05-17T00:47:42.042Z,0
2018-05-17T00:48:50.900Z,0
2018-05-17T00:49:59.761Z,0
2018-05-17T00:51:08.617Z,0
2018-05-17T00:52:17.479Z,0
2018-05-17T00:53:26.893Z,0
2018-05-17T00:54:36.029Z,0
2018-05-17T00:55:45.166Z,0
2018-05-17T00:56:54.028Z,0
2018-05-17T00:58:02.890Z,0
2018-05-17T00:59:12.078Z,0
2018-05-17T01:00:20.939Z,0
2018-05-17T01:01:29.804Z,0
2018-05-17T01:02:38.939Z,0
2018-05-17T01:03:47.801Z,0
2018-05-17T01:04:57.009Z,0
2018-05-17T01:06:05.866Z,0
2018-05-17T01:07:14.726Z,0
2018-05-17T01:08:23.585Z,0
2018-05-17T01:09:32.723Z,0
2018-05-17T01:10:41.635Z,0
2018-05-17T01:11:50.496Z,0
2018-05-17T01:12:59.352Z,0
2018-05-17T01:14:08.212Z,0
2018-05-17T01:15:17.072Z,0
2018-05-17T01:16:25.932Z,0
2018-05-17T01:17:34.790Z,0
2018-05-17T01:18:43.650Z,0
2018-05-17T01:19:53.061Z,0
2018-05-17T01:21:02.209Z,0
2018-05-17T01:22:11.773Z,0
2018-05-17T01:23:20.633Z,0
2018-05-17T01:24:29.492Z,0
2018-05-17T01:25:38.352Z,0
2018-05-17T01:26:47.211Z,0
2018-05-17T01:27:56.371Z,0
2018-05-17T01:29:05.232Z,0
2018-05-17T01:30:14.093Z,0
2018-05-17T01:31:22.951Z,0
2018-05-17T01:32:31.814Z,0
2018-05-17T01:33:40.669Z,0
2018-05-17T01:34:49.534Z,0
2018-05-17T01:35:58.950Z,0
2018-05-17T01:37:07.810Z,0
2018-05-17T01:38:16.672Z,0
2018-05-17T01:39:26.154Z,0
2018-05-17T01:40:35.020Z,0
2018-05-17T01:41:44.156Z,0
2018-05-17T01:42:53.017Z,0
2018-05-17T01:44:01.881Z,0
2018-05-17T01:45:11.371Z,0
2018-05-17T01:46:20.231Z,0
2018-05-17T01:47:29.091Z,0
2018-05-17T01:48:38.224Z,0
2018-05-17T01:49:47.090Z,0
2018-05-17T01:50:55.993Z,0
2018-05-17T01:52:04.853Z,0
2018-05-17T01:53:13.995Z,0
2018-05-17T01:54:22.851Z,0
2018-05-17T01:55:31.709Z,0
2018-05-17T01:56:40.843Z,0
2018-05-17T01:57:49.704Z,0
2018-05-17T01:58:58.561Z,0
2018-05-17T02:00:07.701Z,0
2018-05-17T02:01:16.562Z,0
2018-05-17T02:02:25.695Z,0
2018-05-17T02:03:34.559Z,0
2018-05-17T02:04:43.417Z,0
2018-05-17T02:05:52.554Z,0
2018-05-17T02:07:01.410Z,0
2018-05-17T02:08:10.318Z,0
2018-05-17T02:09:19.179Z,0
2018-05-17T02:10:28.041Z,0
2018-05-17T02:11:36.899Z,0
2018-05-17T02:12:46.041Z,0
2018-05-17T02:13:55.147Z,0
2018-05-17T02:15:04.008Z,0
2018-05-17T02:16:13.430Z,0
2018-05-17T02:17:22.567Z,0
2018-05-17T02:18:31.427Z,0
2018-05-17T02:19:40.619Z,0
2018-05-17T02:20:49.758Z,0
2018-05-17T02:21:58.902Z,0
2018-05-17T02:23:08.316Z,0
2018-05-17T02:24:17.452Z,0
2018-05-17T02:25:26.361Z,0
2018-05-17T02:26:35.506Z,0
2018-05-17T02:27:44.645Z,0
2018-05-17T02:28:53.502Z,0
2018-05-17T02:30:02.642Z,0
2018-05-17T02:31:11.508Z,0
2018-05-17T02:32:20.646Z,0
2018-05-17T02:33:30.084Z,0
2018-05-17T02:34:39.228Z,0
2018-05-17T02:35:48.364Z,0
2018-05-17T02:36:57.223Z,0
2018-05-17T02:38:06.376Z,0
2018-05-17T02:39:15.242Z,0
2018-05-17T02:40:24.395Z,0
2018-05-17T02:41:33.536Z,0
2018-05-17T02:42:42.540Z,0
2018-05-17T02:43:51.679Z,0
2018-05-17T02:45:00.817Z,0
2018-05-17T02:46:09.677Z,0
2018-05-17T02:47:19.091Z,0
2018-05-17T02:48:28.057Z,0
2018-05-17T02:49:37.217Z,4
2018-05-17T02:50:46.935Z,4
2018-05-17T02:51:56.074Z,0
2018-05-17T02:53:04.933Z,0
2018-05-17T02:54:13.944Z,4
2018-05-17T02:55:22.811Z,4
2018-05-17T02:56:32.235Z,0
2018-05-17T02:57:41.100Z,4
2018-05-17T02:58:50.237Z,8
2018-05-17T02:59:59.097Z,8
2018-05-17T03:01:07.958Z,8
2018-05-17T03:02:17.103Z,4
2018-05-17T03:03:25.965Z,8
2018-05-17T03:04:34.825Z,8
2018-05-17T03:05:43.687Z,12
2018-05-17T03:06:52.829Z,12
2018-05-17T03:08:01.684Z,16
2018-05-17T03:09:10.549Z,16
2018-05-17T03:10:19.689Z,20
2018-05-17T03:11:28.875Z,20
2018-05-17T03:12:38.296Z,24
2018-05-17T03:13:47.448Z,24
2018-05-17T03:14:56.593Z,32
2018-05-17T03:16:05.743Z,28
2018-05-17T03:17:14.931Z,32
2018-05-17T03:18:23.790Z,40
2018-05-17T03:19:32.924Z,40
2018-05-17T03:20:41.789Z,48
2018-05-17T03:21:50.645Z,52
2018-05-17T03:22:59.606Z,56
2018-05-17T03:24:08.466Z,60
2018-05-17T03:25:17.324Z,64
2018-05-17T03:26:26.182Z,76
2018-05-17T03:27:35.040Z,80
2018-05-17T03:28:44.156Z,88
2018-05-17T03:29:53.293Z,92
2018-05-17T03:31:02.720Z,108
2018-05-17T03:32:11.866Z,112
2018-05-17T03:33:20.721Z,116
2018-05-17T03:34:29.732Z,128
2018-05-17T03:35:38.595Z,148
2018-05-17T03:36:47.729Z,144
2018-05-17T03:37:56.588Z,148
2018-05-17T03:39:05.450Z,156
2018-05-17T03:40:14.949Z,164
2018-05-17T03:41:23.806Z,172
2018-05-17T03:42:32.946Z,184
2018-05-17T03:43:41.807Z,204
2018-05-17T03:44:50.665Z,232
2018-05-17T03:45:59.928Z,232
2018-05-17T03:47:08.786Z,260
2018-05-17T03:48:17.644Z,268
2018-05-17T03:49:26.789Z,272
2018-05-17T03:50:35.652Z,284
2018-05-17T03:51:44.583Z,304
2018-05-17T03:52:53.738Z,300
2018-05-17T03:54:02.596Z,340
2018-05-17T03:55:11.456Z,364
2018-05-17T03:56:20.316Z,380
2018-05-17T03:57:29.554Z,380
2018-05-17T03:58:38.693Z,416
2018-05-17T03:59:47.553Z,436
2018-05-17T04:00:56.414Z,424
2018-05-17T04:02:05.273Z,432
2018-05-17T04:03:14.232Z,480
2018-05-17T04:04:23.098Z,464
2018-05-17T04:05:31.964Z,480
2018-05-17T04:06:41.106Z,552
2018-05-17T04:07:50.256Z,548
2018-05-17T04:08:59.110Z,568
2018-05-17T04:10:07.974Z,600
2018-05-17T04:11:17.672Z,584
2018-05-17T04:12:26.813Z,700
2018-05-17T04:13:35.672Z,680
2018-05-17T04:14:44.981Z,700
2018-05-17T04:15:53.844Z,688
2018-05-17T04:17:02.981Z,680
2018-05-17T04:18:12.396Z,716
2018-05-17T04:19:21.261Z,804
2018-05-17T04:20:30.747Z,816
2018-05-17T04:21:39.611Z,844
2018-05-17T04:22:48.474Z,900
2018-05-17T04:23:57.616Z,888
2018-05-17T04:25:06.469Z,872
2018-05-17T04:26:15.480Z,956
2018-05-17T04:27:24.339Z,1072
2018-05-17T04:28:33.204Z,1048
2018-05-17T04:29:42.063Z,1048
2018-05-17T04:30:50.919Z,1132
2018-05-17T04:32:00.130Z,1136
2018-05-17T04:33:08.992Z,1176
2018-05-17T04:34:18.182Z,1132
2018-05-17T04:35:27.040Z,1124
2018-05-17T04:36:35.902Z,1120
2018-05-17T04:37:44.759Z,1144
2018-05-17T04:38:54.215Z,1216
2018-05-17T04:40:03.073Z,1204
2018-05-17T04:41:12.210Z,1280
2018-05-17T04:42:21.072Z,1272
2018-05-17T04:43:30.365Z,1292
2018-05-17T04:44:39.222Z,1428
2018-05-17T04:45:48.358Z,1464
2018-05-17T04:46:57.307Z,1444
2018-05-17T04:48:06.080Z,1540
2018-05-17T04:49:14.991Z,1616
2018-05-17T04:50:23.857Z,1652
2018-05-17T04:51:32.712Z,1608
2018-05-17T04:52:41.572Z,1708
2018-05-17T04:53:50.428Z,1888
2018-05-17T04:54:59.439Z,1684
2018-05-17T04:56:08.860Z,1648
2018-05-17T04:57:17.719Z,1668
2018-05-17T04:58:26.865Z,1684
2018-05-17T04:59:36.011Z,1716
2018-05-17T05:00:45.617Z,1784
2018-05-17T05:01:54.476Z,1776
2018-05-17T05:03:03.703Z,1860
2018-05-17T05:04:12.784Z,1944
2018-05-17T05:05:21.644Z,2128
2018-05-17T05:06:30.505Z,2016
2018-05-17T05:07:39.365Z,2028
2018-05-17T05:08:48.228Z,2084
2018-05-17T05:09:57.086Z,2268
2018-05-17T05:11:05.946Z,2272
2018-05-17T05:12:14.955Z,2252
2018-05-17T05:13:24.096Z,2408
2018-05-17T05:14:33.790Z,2588
2018-05-17T05:15:42.649Z,2368
2018-05-17T05:16:51.510Z,2364
2018-05-17T05:18:00.719Z,2536
2018-05-17T05:19:09.580Z,2748
2018-05-17T05:20:18.443Z,2412
2018-05-17T05:21:27.578Z,2540
2018-05-17T05:22:36.444Z,2412
2018-05-17T05:23:45.536Z,2472
2018-05-17T05:24:54.303Z,2428
2018-05-17T05:26:03.164Z,2580
2018-05-17T05:27:12.032Z,2692
2018-05-17T05:28:20.888Z,2784
2018-05-17T05:29:29.900Z,2664
2018-05-17T05:30:38.760Z,2672
2018-05-17T05:31:47.621Z,2712
2018-05-17T05:32:56.487Z,2848
2018-05-17T05:34:05.339Z,2640
2018-05-17T05:35:14.481Z,2748
2018-05-17T05:36:23.621Z,2916
2018-05-17T05:37:32.905Z,2608
2018-05-17T05:38:41.690Z,2884
2018-05-17T05:39:50.549Z,3028
2018-05-17T05:40:59.759Z,2488
2018-05-17T05:42:08.624Z,2576
2018-05-17T05:43:17.545Z,2712
2018-05-17T05:44:26.690Z,2532
2018-05-17T05:45:35.555Z,2896
2018-05-17T05:46:44.747Z,2832
2018-05-17T05:47:53.608Z,2800
2018-05-17T05:49:02.470Z,2884
2018-05-17T05:50:11.330Z,2532
2018-05-17T05:51:20.196Z,2532
2018-05-17T05:52:29.110Z,2628
2018-05-17T05:53:37.969Z,2400
2018-05-17T05:54:47.119Z,2152
2018-05-17T05:55:56.244Z,2104
2018-05-17T05:57:05.104Z,1892
2018-05-17T05:58:14.319Z,1764
2018-05-17T05:59:23.179Z,2012
2018-05-17T06:00:32.041Z,2108
2018-05-17T06:01:40.902Z,2448
2018-05-17T06:02:49.765Z,2560
2018-05-17T06:03:58.724Z,2536
2018-05-17T06:05:07.595Z,3164
2018-05-17T06:06:17.010Z,2832
2018-05-17T06:07:25.867Z,3192
2018-05-17T06:08:35.185Z,2712
2018-05-17T06:09:44.422Z,3112
2018-05-17T06:10:53.282Z,3276
2018-05-17T06:12:02.141Z,2968
2018-05-17T06:13:11.103Z,2772
2018-05-17T06:14:19.963Z,3080
2018-05-17T06:15:29.304Z,2872
2018-05-17T06:16:38.164Z,3440
2018-05-17T06:17:47.022Z,3464
2018-05-17T06:18:56.162Z,2828
2018-05-17T06:20:05.022Z,3448
2018-05-17T06:21:13.983Z,3172
2018-05-17T06:22:22.844Z,2860
2018-05-17T06:23:31.707Z,3316
2018-05-17T06:24:40.568Z,2556
2018-05-17T06:25:49.427Z,3508
2018-05-17T06:26:58.439Z,3864
2018-05-17T06:28:07.296Z,3896
2018-05-17T06:29:16.156Z,3308
2018-05-17T06:30:25.044Z,3580
2018-05-17T06:31:33.876Z,3860
2018-05-17T06:32:42.839Z,3072
2018-05-17T06:33:51.699Z,2768
2018-05-17T06:35:00.560Z,3596
2018-05-17T06:36:09.420Z,3728
2018-05-17T06:37:18.282Z,3272
2018-05-17T06:38:27.196Z,3556
2018-05-17T06:39:36.058Z,3256
2018-05-17T06:40:44.918Z,3820
2018-05-17T06:41:53.783Z,3980
2018-05-17T06:43:02.920Z,4192
2018-05-17T06:44:12.390Z,3900
2018-05-17T06:45:21.252Z,4604
2018-05-17T06:46:30.388Z,4300
2018-05-17T06:47:39.249Z,4964
2018-05-17T06:48:48.109Z,4468
2018-05-17T06:49:56.968Z,3924
2018-05-17T06:51:05.828Z,3784
2018-05-17T06:52:14.688Z,3452
2018-05-17T06:53:23.831Z,3580
2018-05-17T06:54:32.691Z,4320
2018-05-17T06:55:41.885Z,4208
2018-05-17T06:56:51.023Z,3864
2018-05-17T06:57:59.888Z,4228
2018-05-17T06:59:09.075Z,4224
2018-05-17T07:00:17.933Z,4472
2018-05-17T07:01:26.946Z,4464
2018-05-17T07:02:35.812Z,4720
2018-05-17T07:03:44.678Z,4800
2018-05-17T07:04:53.815Z,3936
2018-05-17T07:06:02.956Z,4284
2018-05-17T07:07:11.974Z,4576
2018-05-17T07:08:20.834Z,4932
2018-05-17T07:09:29.696Z,4752
2018-05-17T07:10:38.873Z,4764
2018-05-17T07:11:47.735Z,4816
2018-05-17T07:12:56.925Z,4244
2018-05-17T07:14:06.081Z,4280
2018-05-17T07:15:14.934Z,3948
2018-05-17T07:16:23.799Z,3884
2018-05-17T07:17:32.664Z,4300
2018-05-17T07:18:42.336Z,3748
2018-05-17T07:19:51.114Z,3428
2018-05-17T07:20:59.975Z,3944
2018-05-17T07:22:08.836Z,4296
2018-05-17T07:23:17.697Z,4004
2018-05-17T07:24:26.983Z,4084
2018-05-17T07:25:36.126Z,4064
2018-05-17T07:26:44.991Z,4444
2018-05-17T07:27:53.848Z,4928
2018-05-17T07:29:03.012Z,4280
2018-05-17T07:30:12.152Z,4080
2018-05-17T07:31:21.336Z,4040
2018-05-17T07:32:30.186Z,4080
2018-05-17T07:33:39.324Z,4256
2018-05-17T07:34:48.185Z,4768
2018-05-17T07:35:57.098Z,5540
2018-05-17T07:37:06.235Z,5656
2018-05-17T07:38:15.372Z,5772
2018-05-17T07:39:24.558Z,5904
2018-05-17T07:40:33.418Z,5960
2018-05-17T07:41:42.330Z,5828
2018-05-17T07:42:51.194Z,5760
2018-05-17T07:44:00.058Z,6460
2018-05-17T07:45:08.917Z,5052
2018-05-17T07:46:17.979Z,6200
2018-05-17T07:47:27.189Z,7232
2018-05-17T07:48:36.329Z,6124
2018-05-17T07:49:45.186Z,5008
2018-05-17T07:50:54.047Z,6252
2018-05-17T07:52:02.968Z,6352
2018-05-17T07:53:12.123Z,6216
2018-05-17T07:54:21.262Z,6216
2018-05-17T07:55:30.136Z,6308
2018-05-17T07:56:39.275Z,6812
2018-05-17T07:57:48.138Z,6996
2018-05-17T07:58:57.099Z,6120
2018-05-17T08:00:05.960Z,6364
2018-05-17T08:01:14.821Z,6120
2018-05-17T08:02:23.677Z,6496
2018-05-17T08:03:32.540Z,6420
2018-05-17T08:04:41.398Z,7376
2018-05-17T08:05:50.260Z,7400
2018-05-17T08:06:59.118Z,7384
2018-05-17T08:08:07.986Z,7192
2018-05-17T08:09:16.899Z,5888
2018-05-17T08:10:26.060Z,6028
2018-05-17T08:11:34.921Z,6240
2018-05-17T08:12:43.783Z,6144
2018-05-17T08:13:52.642Z,5796
2018-05-17T08:15:01.509Z,6396
2018-05-17T08:16:10.469Z,7564
2018-05-17T08:17:19.339Z,7348
2018-05-17T08:18:28.201Z,6672
2018-05-17T08:19:37.337Z,6880
2018-05-17T08:20:46.197Z,7612
2018-05-17T08:21:55.207Z,8256
2018-05-17T08:23:04.357Z,8460
2018-05-17T08:24:13.220Z,8956
2018-05-17T08:25:22.356Z,8824
2018-05-17T08:26:31.219Z,7836
2018-05-17T08:27:40.611Z,9308
2018-05-17T08:28:49.518Z,9280
2018-05-17T08:29:58.663Z,9304
2018-05-17T08:31:07.573Z,8584
2018-05-17T08:32:16.710Z,8332
2018-05-17T08:33:26.279Z,8640
2018-05-17T08:34:35.148Z,9020
2018-05-17T08:35:44.005Z,8268
2018-05-17T08:36:53.290Z,9412
2018-05-17T08:38:02.148Z,8808
2018-05-17T08:39:11.289Z,7644
2018-05-17T08:40:20.152Z,8876
2018-05-17T08:41:29.016Z,9792
2018-05-17T08:42:38.580Z,9764
2018-05-17T08:43:47.654Z,9480
2018-05-17T08:44:56.851Z,9748
2018-05-17T08:46:05.710Z,8996
2018-05-17T08:47:14.578Z,8524
2018-05-17T08:48:23.724Z,9508
2018-05-17T08:49:32.863Z,10092
2018-05-17T08:50:42.077Z,11140
2018-05-17T08:51:50.942Z,10236
2018-05-17T08:52:59.802Z,10540
2018-05-17T08:54:08.949Z,10404
2018-05-17T08:55:18.376Z,9688
2018-05-17T08:56:27.668Z,10960
2018-05-17T08:57:36.817Z,9784
2018-05-17T08:58:45.681Z,10072
2018-05-17T08:59:54.540Z,9952
2018-05-17T09:01:03.402Z,11080
2018-05-17T09:02:12.515Z,9972
2018-05-17T09:03:21.383Z,10452
2018-05-17T09:04:30.242Z,9700
2018-05-17T09:05:39.104Z,9300
2018-05-17T09:06:47.967Z,10488
2018-05-17T09:07:56.927Z,11700
2018-05-17T09:09:05.794Z,10520
2018-05-17T09:10:14.942Z,9700
2018-05-17T09:11:23.808Z,9604
2018-05-17T09:12:32.668Z,8312
2018-05-17T09:13:42.112Z,8048
2018-05-17T09:14:50.928Z,9048
2018-05-17T09:15:59.791Z,10000
2018-05-17T09:17:08.930Z,10748
2018-05-17T09:18:18.069Z,11712
2018-05-17T09:19:27.031Z,10444
2018-05-17T09:20:35.893Z,10880
2018-05-17T09:21:44.758Z,9568
2018-05-17T09:22:53.624Z,10484
2018-05-17T09:24:02.766Z,10988
2018-05-17T09:25:12.006Z,10384
2018-05-17T09:26:20.866Z,11028
2018-05-17T09:27:29.729Z,11996
2018-05-17T09:28:38.589Z,10972
2018-05-17T09:29:47.733Z,11124
2018-05-17T09:30:56.709Z,11320
2018-05-17T09:32:05.848Z,10656
2018-05-17T09:33:14.714Z,12304
2018-05-17T09:34:23.573Z,12340
2018-05-17T09:35:32.436Z,12500
2018-05-17T09:36:41.594Z,11824
2018-05-17T09:37:50.737Z,12168
2018-05-17T09:38:59.598Z,11296
2018-05-17T09:40:08.739Z,10700
2018-05-17T09:41:17.655Z,11164
2018-05-17T09:42:26.465Z,11688
2018-05-17T09:43:35.329Z,11908
2018-05-17T09:44:44.194Z,12144
2018-05-17T09:45:53.057Z,12308
2018-05-17T09:47:02.198Z,12520
2018-05-17T09:48:11.160Z,12652
2018-05-17T09:49:20.307Z,11672
2018-05-17T09:50:29.447Z,13620
2018-05-17T09:51:38.588Z,11812
2018-05-17T09:52:47.730Z,12172
2018-05-17T09:53:56.699Z,13116
2018-05-17T09:55:05.581Z,13332
2018-05-17T09:56:14.370Z,11968
2018-05-17T09:57:23.230Z,12568
2018-05-17T09:58:32.099Z,11776
2018-05-17T09:59:41.014Z,13228
2018-05-17T10:00:49.875Z,11696
2018-05-17T10:01:58.738Z,12408
2018-05-17T10:03:07.604Z,14180
2018-05-17T10:04:16.468Z,13596
2018-05-17T10:05:25.381Z,13492
2018-05-17T10:06:34.244Z,14088
2018-05-17T10:07:43.388Z,12764
2018-05-17T10:08:52.618Z,13012
2018-05-17T10:10:01.412Z,12016
2018-05-17T10:11:10.426Z,11692
2018-05-17T10:12:19.291Z,11712
2018-05-17T10:13:28.154Z,11324
2018-05-17T10:14:37.478Z,11404
2018-05-17T10:15:47.013Z,12200
2018-05-17T10:16:56.023Z,12420
2018-05-17T10:18:05.173Z,11388
2018-05-17T10:19:14.038Z,15188
2018-05-17T10:20:23.181Z,13912
2018-05-17T10:21:32.045Z,13104
2018-05-17T10:22:41.241Z,12732
2018-05-17T10:23:50.104Z,13396
2018-05-17T10:24:58.965Z,12040
2018-05-17T10:26:07.834Z,12916
2018-05-17T10:27:16.697Z,14088
2018-05-17T10:28:25.888Z,15236
2018-05-17T10:29:35.129Z,13484
2018-05-17T10:30:44.561Z,13972
2018-05-17T10:31:53.714Z,14068
2018-05-17T10:33:02.863Z,14424
2018-05-17T10:34:11.726Z,15112
2018-05-17T10:35:20.593Z,12400
2018-05-17T10:36:29.734Z,13576
2018-05-17T10:37:38.598Z,13180
2018-05-17T10:38:47.463Z,14948
2018-05-17T10:39:56.427Z,13848
2018-05-17T10:41:05.291Z,13120
2018-05-17T10:42:14.518Z,13628
2018-05-17T10:43:23.694Z,13156
2018-05-17T10:44:32.554Z,14172
2018-05-17T10:45:41.868Z,14500
2018-05-17T10:46:51.012Z,14376
2018-05-17T10:48:00.154Z,13416
2018-05-17T10:49:09.299Z,14684
2018-05-17T10:50:18.443Z,14624
2018-05-17T10:51:27.942Z,13772
2018-05-17T10:52:36.799Z,14712
2018-05-17T10:53:45.945Z,14168
2018-05-17T10:54:54.807Z,14092
2018-05-17T10:56:03.671Z,15820
2018-05-17T10:57:12.967Z,15700
2018-05-17T10:58:21.826Z,16448
2018-05-17T10:59:30.689Z,16512
2018-05-17T11:00:39.556Z,17216
2018-05-17T11:01:48.418Z,14392
2018-05-17T11:02:57.437Z,16224
2018-05-17T11:04:06.586Z,15660
2018-05-17T11:05:15.727Z,15204
2018-05-17T11:06:24.591Z,13660
2018-05-17T11:07:33.455Z,13536
2018-05-17T11:08:42.420Z,14548
2018-05-17T11:09:51.285Z,16352
2018-05-17T11:11:00.149Z,14104
2018-05-17T11:12:09.618Z,14940
2018-05-17T11:13:18.744Z,13572
2018-05-17T11:14:27.659Z,14596
2018-05-17T11:15:36.800Z,16928
2018-05-17T11:16:45.666Z,17216
2018-05-17T11:17:54.528Z,14048
2018-05-17T11:19:03.393Z,13468
2018-05-17T11:20:12.305Z,14144
2018-05-17T11:21:21.169Z,13136
2018-05-17T11:22:30.032Z,14160
2018-05-17T11:23:38.894Z,13492
2018-05-17T11:24:47.758Z,12892
2018-05-17T11:25:57.363Z,15388
2018-05-17T11:27:06.217Z,15872
2018-05-17T11:28:15.358Z,15224
2018-05-17T11:29:24.226Z,15428
2018-05-17T11:30:33.088Z,15008
2018-05-17T11:31:42.101Z,15784
2018-05-17T11:32:50.966Z,14364
2018-05-17T11:33:59.829Z,16832
2018-05-17T11:35:08.697Z,15160
2018-05-17T11:36:17.846Z,16800
2018-05-17T11:37:26.819Z,13972
2018-05-17T11:38:36.059Z,12204
2018-05-17T11:39:44.818Z,12184
2018-05-17T11:40:53.960Z,11528
2018-05-17T11:42:03.099Z,11216
2018-05-17T11:43:12.390Z,10232
2018-05-17T11:44:21.660Z,9864
2018-05-17T11:45:30.804Z,10240
2018-05-17T11:46:39.670Z,9368
2018-05-17T11:47:48.533Z,9732
2018-05-17T11:48:57.495Z,10728
2018-05-17T11:50:06.640Z,10184
2018-05-17T11:51:15.498Z,9972
2018-05-17T11:52:24.360Z,9848
2018-05-17T11:53:33.225Z,9704
2018-05-17T11:54:42.087Z,9740
2018-05-17T11:55:50.953Z,9616
2018-05-17T11:57:00.372Z,10488
2018-05-17T11:58:09.234Z,10620
2018-05-17T11:59:18.373Z,9668
2018-05-17T12:00:27.336Z,9536
2018-05-17T12:01:36.266Z,9948
2018-05-17T12:02:45.533Z,10100
2018-05-17T12:03:54.390Z,10192
2018-05-17T12:05:03.252Z,10912
2018-05-17T12:06:12.165Z,10880
2018-05-17T12:07:21.981Z,10316
2018-05-17T12:08:31.434Z,11024
2018-05-17T12:09:40.572Z,12088
2018-05-17T12:10:49.436Z,12508
2018-05-17T12:11:58.571Z,11448
2018-05-17T12:13:07.642Z,10968
2018-05-17T12:14:16.802Z,11500
2018-05-17T12:15:25.666Z,11516
2018-05-17T12:16:35.582Z,10736
2018-05-17T12:17:44.844Z,10040
2018-05-17T12:18:53.705Z,10644
2018-05-17T12:20:02.924Z,11248
2018-05-17T12:21:12.061Z,12168
2018-05-17T12:22:20.926Z,10416
2018-05-17T12:23:30.115Z,10148
2018-05-17T12:24:39.262Z,8960
2018-05-17T12:25:48.406Z,8580
2018-05-17T12:26:57.826Z,8736
2018-05-17T12:28:06.692Z,8240
2018-05-17T12:29:15.621Z,8520
2018-05-17T12:30:24.485Z,8988
2018-05-17T12:31:33.443Z,9640
2018-05-17T12:32:42.630Z,9632
2018-05-17T12:33:52.065Z,10040
2018-05-17T12:35:01.031Z,10004
2018-05-17T12:36:10.195Z,10184
2018-05-17T12:37:19.141Z,10712
2018-05-17T12:38:28.004Z,11760
2018-05-17T12:39:37.429Z,10224
2018-05-17T12:40:46.642Z,12040
2018-05-17T12:41:55.509Z,11192
2018-05-17T12:43:04.420Z,10020
2018-05-17T12:44:13.565Z,10624
2018-05-17T12:45:22.721Z,11208
2018-05-17T12:46:31.731Z,11612
2018-05-17T12:47:40.874Z,11640
2018-05-17T12:48:50.293Z,11816
2018-05-17T12:49:59.164Z,9512
2018-05-17T12:51:08.026Z,8920
2018-05-17T12:52:16.893Z,7968
2018-05-17T12:53:26.032Z,8160
2018-05-17T12:54:35.173Z,8868
2018-05-17T12:55:44.312Z,9956
2018-05-17T12:56:53.216Z,10576
2018-05-17T12:58:02.377Z,10828
2018-05-17T12:59:11.526Z,12492
2018-05-17T13:00:20.391Z,11568
2018-05-17T13:01:29.264Z,11452
2018-05-17T13:02:38.123Z,11048
2018-05-17T13:03:47.136Z,11236
2018-05-17T13:04:55.999Z,9832
2018-05-17T13:06:05.141Z,11060
2018-05-17T13:07:14.006Z,9304
2018-05-17T13:08:23.208Z,9776
2018-05-17T13:09:32.721Z,11156
2018-05-17T13:10:41.869Z,9148
2018-05-17T13:11:50.735Z,8620
2018-05-17T13:12:59.718Z,8904
2018-05-17T13:14:08.456Z,8576
2018-05-17T13:15:17.986Z,8764
2018-05-17T13:16:26.853Z,8496
2018-05-17T13:17:35.721Z,8728
2018-05-17T13:18:44.855Z,8828
2018-05-17T13:19:53.722Z,8028
2018-05-17T13:21:02.638Z,8716
2018-05-17T13:22:12.054Z,8764
2018-05-17T13:23:21.197Z,8588
2018-05-17T13:24:30.408Z,8392
2018-05-17T13:25:39.198Z,9160
2018-05-17T13:26:48.695Z,8712
2018-05-17T13:27:57.562Z,8080
2018-05-17T13:29:06.716Z,8300
2018-05-17T13:30:15.595Z,7992
2018-05-17T13:31:24.438Z,7400
2018-05-17T13:32:33.353Z,8212
2018-05-17T13:33:42.218Z,7036
2018-05-17T13:34:51.083Z,7988
2018-05-17T13:35:59.951Z,8584
2018-05-17T13:37:08.856Z,8180
2018-05-17T13:38:18.400Z,7920
2018-05-17T13:39:27.265Z,7120
2018-05-17T13:40:36.131Z,7856
2018-05-17T13:41:44.995Z,8012
2018-05-17T13:42:54.135Z,8392
2018-05-17T13:44:03.286Z,8100
2018-05-17T13:45:12.137Z,7636
2018-05-17T13:46:21.679Z,7480
2018-05-17T13:47:30.567Z,7860
2018-05-17T13:48:39.405Z,8892
2018-05-17T13:49:48.626Z,9248
2018-05-17T13:50:57.774Z,9676
2018-05-17T13:52:06.634Z,9540
2018-05-17T13:53:16.057Z,10656
2018-05-17T13:54:24.917Z,7624
2018-05-17T13:55:34.676Z,6936
2018-05-17T13:56:44.414Z,6964
2018-05-17T13:57:53.280Z,7744
2018-05-17T13:59:02.425Z,6740
2018-05-17T14:00:11.292Z,6888
2018-05-17T14:01:20.404Z,7572
2018-05-17T14:02:29.986Z,6924
2018-05-17T14:03:39.215Z,6556
2018-05-17T14:04:48.075Z,7560
2018-05-17T14:05:57.515Z,7628
2018-05-17T14:07:06.658Z,7264
2018-05-17T14:08:15.521Z,7084
2018-05-17T14:09:24.388Z,6956
2018-05-17T14:10:33.540Z,5900
2018-05-17T14:11:42.403Z,5952
2018-05-17T14:12:51.264Z,6012
2018-05-17T14:14:00.127Z,6620
2018-05-17T14:15:09.078Z,6856
2018-05-17T14:16:17.858Z,6996
2018-05-17T14:17:27.016Z,6456
2018-05-17T14:18:36.230Z,5848
2018-05-17T14:19:45.103Z,7244
2018-05-17T14:20:53.968Z,6464
2018-05-17T14:22:02.827Z,6556
2018-05-17T14:23:11.799Z,6908
2018-05-17T14:24:21.045Z,5848
2018-05-17T14:25:30.188Z,6448
2018-05-17T14:26:39.333Z,6860
2018-05-17T14:27:48.195Z,6696
2018-05-17T14:28:57.056Z,6252
2018-05-17T14:30:06.557Z,6192
2018-05-17T14:31:15.700Z,6192
2018-05-17T14:32:24.562Z,6160
2018-05-17T14:33:33.427Z,6176
2018-05-17T14:34:42.297Z,5688
2018-05-17T14:35:51.590Z,6144
2018-05-17T14:37:00.453Z,5516
2018-05-17T14:38:09.370Z,6052
2018-05-17T14:39:18.231Z,6752
2018-05-17T14:40:27.091Z,6072
2018-05-17T14:41:36.120Z,6020
2018-05-17T14:42:44.982Z,4852
2018-05-17T14:43:54.138Z,5664
2018-05-17T14:45:03.000Z,5688
2018-05-17T14:46:11.879Z,6084
2018-05-17T14:47:20.932Z,5480
2018-05-17T14:48:30.074Z,5572
2018-05-17T14:49:38.936Z,4704
2018-05-17T14:50:47.916Z,5344
2018-05-17T14:51:56.775Z,5268
2018-05-17T14:53:06.277Z,5184
2018-05-17T14:54:15.701Z,5436
2018-05-17T14:55:24.861Z,5176
2018-05-17T14:56:33.732Z,5068
2018-05-17T14:57:42.881Z,5012
2018-05-17T14:58:51.844Z,4640
2018-05-17T15:00:00.805Z,4716
2018-05-17T15:01:09.979Z,4784
2018-05-17T15:02:18.828Z,4756
2018-05-17T15:03:27.962Z,4504
2018-05-17T15:04:36.973Z,5304
2018-05-17T15:05:45.837Z,4924
2018-05-17T15:06:54.696Z,4480
2018-05-17T15:08:03.559Z,4068
2018-05-17T15:09:12.424Z,3752
2018-05-17T15:10:21.382Z,4240
2018-05-17T15:11:30.249Z,3636
2018-05-17T15:12:39.107Z,4416
2018-05-17T15:13:47.975Z,3580
2018-05-17T15:14:56.839Z,3732
2018-05-17T15:16:05.797Z,3924
2018-05-17T15:17:14.658Z,3292
2018-05-17T15:18:23.519Z,3352
2018-05-17T15:19:32.383Z,3580
2018-05-17T15:20:41.527Z,3584
2018-05-17T15:21:50.743Z,3264
2018-05-17T15:22:59.878Z,3796
2018-05-17T15:24:08.762Z,3776
2018-05-17T15:25:17.626Z,3864
2018-05-17T15:26:26.485Z,3836
2018-05-17T15:27:36.537Z,3880
2018-05-17T15:28:45.781Z,4184
2018-05-17T15:29:54.654Z,3676
2018-05-17T15:31:03.797Z,3256
2018-05-17T15:32:12.657Z,3068
2018-05-17T15:33:21.518Z,3520